Time;durP1;ratioP1;P1;durP2;ratioP2;P2;SDS_P1;SDS_P2;PMS_P1;PMS_P2;Temp;Humidity;BMP_temperature;BMP_pressure;BME280_temperature;BME280_humidity;BME280_pressure;Samples;Min_cycle;Max_cycle;Signal;HPM_P1;HPM_P2
2022/10/30 00:00:30;;;;;;;3.60;1.83;;;;;;;23.49;40.18;97524.97;5155402;27;20117;-33
2022/10/30 00:02:56;;;;;;;3.15;1.88;;;;;;;23.50;39.91;97523.69;5155630;27;20022;-33
2022/10/30 00:05:22;;;;;;;3.63;1.90;;;;;;;23.44;40.03;97529.19;5136984;27;20030;-34
2022/10/30 00:07:48;;;;;;;3.30;1.63;;;;;;;23.56;39.46;97517.00;5155332;27;20018;-33
2022/10/30 00:10:14;;;;;;;3.83;2.00;;;;;;;23.56;39.56;97516.25;5154440;27;20459;-33
2022/10/30 00:12:40;;;;;;;2.80;2.15;;;;;;;23.53;39.34;97526.28;5155250;27;20463;-35
2022/10/30 00:15:06;;;;;;;3.70;1.90;;;;;;;23.56;39.79;97521.78;5155590;27;20022;-33
2022/10/30 00:17:32;;;;;;;4.55;1.88;;;;;;;23.62;39.62;97517.81;5155102;27;20025;-33
2022/10/30 00:19:57;;;;;;;3.58;1.80;;;;;;;23.60;39.47;97520.34;5155306;27;20486;-33
2022/10/30 00:22:23;;;;;;;5.43;1.98;;;;;;;23.56;39.47;97528.09;5136443;27;20035;-33
2022/10/30 00:24:48;;;;;;;3.28;2.17;;;;;;;23.49;39.15;97519.44;5155198;27;20093;-33
2022/10/30 00:27:14;;;;;;;2.95;1.80;;;;;;;23.49;39.49;97520.16;5155314;27;20477;-33
2022/10/30 00:29:39;;;;;;;3.13;1.70;;;;;;;23.49;39.28;97524.97;5155079;27;20097;-34
2022/10/30 00:32:05;;;;;;;2.47;1.65;;;;;;;23.50;39.59;97515.38;5145793;27;20487;-33
2022/10/30 00:34:30;;;;;;;3.13;1.73;;;;;;;23.46;39.56;97514.84;5134585;28;20019;-33
2022/10/30 00:36:56;;;;;;;5.32;1.80;;;;;;;23.46;39.92;97512.84;5115817;28;20023;-33
2022/10/30 00:39:21;;;;;;;2.40;1.80;;;;;;;23.35;39.33;97514.72;5115865;28;20042;-34
2022/10/30 00:41:47;;;;;;;3.75;1.83;;;;;;;23.35;39.70;97507.19;5134391;28;20019;-34
2022/10/30 00:44:37;;;;;;;3.33;1.73;;;;;;;23.26;39.73;97513.59;5134329;28;20019;-34
2022/10/30 00:47:09;;;;;;;2.97;1.90;;;;;;;23.44;39.71;97517.34;5134443;28;20019;-33
2022/10/30 00:49:37;;;;;;;3.00;1.60;;;;;;;23.40;39.57;97514.00;5134218;28;20467;-33
2022/10/30 00:52:08;;;;;;;5.10;1.70;;;;;;;23.37;39.95;97507.44;5134301;28;20259;-33
2022/10/30 00:54:35;;;;;;;4.40;1.70;;;;;;;23.34;39.48;97507.66;5134084;28;20038;-33
2022/10/30 00:57:05;;;;;;;3.53;1.80;;;;;;;23.31;39.56;97500.34;5134203;28;20023;-33
2022/10/30 00:59:33;;;;;;;3.40;2.08;;;;;;;23.27;39.93;97504.06;5134172;28;20035;-33
2022/10/30 01:02:00;;;;;;;3.40;1.90;;;;;;;23.26;39.67;97496.25;5133996;28;20023;-33
2022/10/30 01:04:27;;;;;;;3.28;2.00;;;;;;;23.25;39.65;97497.47;5133964;28;20457;-33
2022/10/30 01:06:53;;;;;;;2.05;1.50;;;;;;;23.40;38.95;97508.47;5134130;28;20106;-34
2022/10/30 01:09:20;;;;;;;3.22;1.90;;;;;;;23.33;39.37;97506.91;5134220;28;20104;-33
2022/10/30 01:11:45;;;;;;;2.65;1.70;;;;;;;23.20;39.85;97495.44;5134283;28;20035;-34
2022/10/30 01:14:14;;;;;;;3.17;1.77;;;;;;;23.36;39.39;97494.09;5134271;28;20071;-33
2022/10/30 01:16:54;;;;;;;2.67;1.73;;;;;;;23.28;39.37;97502.06;5115497;28;20027;-33
2022/10/30 01:19:41;;;;;;;4.45;1.85;;;;;;;23.31;39.51;97503.84;5115380;28;20348;-34
2022/10/30 01:22:29;;;;;;;5.57;1.75;;;;;;;23.31;39.69;97492.78;5135617;27;20109;-35
2022/10/30 01:25:16;;;;;;;2.75;1.60;;;;;;;23.33;39.49;97492.31;5137707;27;20027;-34
2022/10/30 01:27:53;;;;;;;5.60;1.90;;;;;;;23.17;39.71;97494.38;5137659;27;20656;-33
2022/10/30 01:30:40;;;;;;;4.38;1.60;;;;;;;23.22;39.49;97485.41;5138006;27;20027;-33
2022/10/30 01:33:31;;;;;;;4.47;1.92;;;;;;;23.46;38.65;97481.63;5137675;27;20080;-34
2022/10/30 01:36:10;;;;;;;4.10;1.85;;;;;;;23.32;39.01;97482.47;5137617;27;20094;-34
2022/10/30 01:38:40;;;;;;;5.20;2.10;;;;;;;23.27;39.08;97479.16;5137587;27;20368;-33
2022/10/30 01:41:06;;;;;;;3.25;2.03;;;;;;;23.19;39.40;97471.75;5137607;27;20015;-34
2022/10/30 01:43:33;;;;;;;5.45;1.80;;;;;;;23.43;39.17;97479.84;5137423;27;20543;-34
2022/10/30 01:46:02;;;;;;;3.22;1.75;;;;;;;23.34;38.92;97466.16;5137260;27;20109;-33
2022/10/30 01:48:45;;;;;;;3.05;2.08;;;;;;;23.23;39.45;97462.00;5137317;27;20099;-33
2022/10/30 01:51:19;;;;;;;3.50;1.95;;;;;;;23.27;39.22;97454.25;5137311;27;20034;-33
2022/10/30 01:54:07;;;;;;;3.90;1.75;;;;;;;23.37;39.30;97454.13;5136958;27;20518;-35
2022/10/30 01:56:51;;;;;;;5.20;2.58;;;;;;;23.39;39.06;97451.59;5137523;27;20114;-33
2022/10/30 01:59:30;;;;;;;4.45;2.00;;;;;;;23.39;39.36;97441.28;5137192;27;20391;-33
2022/10/30 02:01:57;;;;;;;4.47;1.90;;;;;;;23.41;39.34;97443.56;5137025;27;20027;-33
2022/10/30 02:04:23;;;;;;;3.17;2.00;;;;;;;23.32;39.69;97443.72;5136916;27;20034;-33
2022/10/30 02:06:50;;;;;;;2.63;1.98;;;;;;;23.39;39.41;97437.75;5136830;27;20088;-33
2022/10/30 02:09:16;;;;;;;3.58;1.90;;;;;;;23.35;39.39;97437.97;5136991;27;20033;-33
2022/10/30 02:11:44;;;;;;;3.55;2.53;;;;;;;23.43;39.52;97438.31;5136913;27;20115;-33
2022/10/30 02:14:11;;;;;;;5.30;2.65;;;;;;;23.36;39.64;97433.22;5136637;27;20088;-33
2022/10/30 02:16:43;;;;;;;5.80;2.63;;;;;;;23.38;39.85;97437.00;5118114;27;20401;-33
2022/10/30 02:19:09;;;;;;;3.03;2.23;;;;;;;23.38;39.43;97430.69;5118278;27;20490;-33
2022/10/30 02:21:34;;;;;;;5.43;2.30;;;;;;;23.34;39.92;97436.47;5136765;27;20023;-33
2022/10/30 02:24:00;;;;;;;7.68;2.47;;;;;;;23.44;39.54;97435.06;5136845;27;20019;-34
2022/10/30 02:26:25;;;;;;;3.67;2.20;;;;;;;23.45;39.77;97427.50;5136796;27;20098;-34
2022/10/30 02:28:51;;;;;;;3.78;2.30;;;;;;;23.39;39.39;97427.44;5136542;27;20027;-35
2022/10/30 02:31:18;;;;;;;4.03;2.15;;;;;;;23.47;39.44;97425.00;5136359;27;20030;-35
2022/10/30 02:33:45;;;;;;;3.13;1.90;;;;;;;23.48;39.39;97421.75;5135654;27;20019;-34
2022/10/30 02:36:10;;;;;;;3.70;2.05;;;;;;;23.37;39.63;97412.59;5136434;27;20427;-33
2022/10/30 02:38:36;;;;;;;4.35;2.17;;;;;;;23.40;39.90;97422.66;5136758;27;20030;-33
2022/10/30 02:41:01;;;;;;;4.00;1.98;;;;;;;23.38;39.27;97423.16;5136152;27;21531;-33
2022/10/30 02:43:27;;;;;;;5.03;2.28;;;;;;;23.48;38.94;97421.75;5136291;27;20022;-33
2022/10/30 02:45:53;;;;;;;2.78;1.75;;;;;;;23.37;39.27;97423.66;5117739;27;20055;-33
2022/10/30 02:48:18;;;;;;;4.90;2.47;;;;;;;23.43;38.84;97427.22;5136460;27;20027;-35
2022/10/30 02:50:44;;;;;;;3.35;1.70;;;;;;;23.47;38.74;97419.47;5136084;27;20366;-33
2022/10/30 02:53:09;;;;;;;3.47;2.00;;;;;;;23.46;38.64;97427.03;5136120;27;20019;-34
2022/10/30 02:55:35;;;;;;;3.08;1.90;;;;;;;23.48;38.96;97430.06;5135912;27;20039;-33
2022/10/30 02:58:00;;;;;;;3.78;1.83;;;;;;;23.49;38.84;97420.50;5135908;27;20024;-33
2022/10/30 03:00:26;;;;;;;2.92;1.83;;;;;;;23.53;38.66;97425.84;5135753;27;20023;-33
2022/10/30 03:02:55;;;;;;;3.03;1.70;;;;;;;23.52;38.69;97424.31;5135750;27;20027;-33
2022/10/30 03:05:20;;;;;;;2.67;1.88;;;;;;;23.46;39.04;97435.31;5135868;27;20027;-33
2022/10/30 03:07:47;;;;;;;3.03;2.00;;;;;;;23.42;38.64;97436.78;5135697;27;20023;-33
2022/10/30 03:10:13;;;;;;;2.65;1.60;;;;;;;23.40;38.90;97433.75;5135596;27;20102;-33
2022/10/30 03:12:39;;;;;;;4.63;2.17;;;;;;;23.40;38.48;97425.44;5135932;27;20030;-33
2022/10/30 03:15:05;;;;;;;4.40;1.80;;;;;;;23.41;38.26;97429.72;5135791;27;20023;-33
2022/10/30 03:17:30;;;;;;;3.65;1.80;;;;;;;23.46;38.45;97437.34;5135406;27;20076;-33
2022/10/30 03:19:56;;;;;;;4.10;2.28;;;;;;;23.38;38.76;97430.69;5135445;27;20030;-33
2022/10/30 03:22:21;;;;;;;3.40;2.05;;;;;;;23.38;38.28;97430.69;5135458;27;20475;-33
2022/10/30 03:24:47;;;;;;;3.13;1.70;;;;;;;23.39;38.46;97427.44;5135277;27;20023;-34
2022/10/30 03:27:12;;;;;;;3.00;1.70;;;;;;;23.45;37.90;97430.28;5135502;27;20023;-36
2022/10/30 03:29:38;;;;;;;3.28;1.50;;;;;;;23.45;38.38;97435.81;5135333;27;20019;-34
2022/10/30 03:32:07;;;;;;;2.92;1.73;;;;;;;23.38;38.20;97427.91;5135099;27;20084;-33
2022/10/30 03:34:32;;;;;;;2.92;1.52;;;;;;;23.44;38.29;97437.06;5135190;27;20035;-33
2022/10/30 03:36:58;;;;;;;3.13;1.88;;;;;;;23.43;37.86;97435.53;5135250;27;20417;-35
2022/10/30 03:39:23;;;;;;;3.25;2.17;;;;;;;23.32;38.50;97427.13;5135061;27;20019;-33
2022/10/30 03:41:49;;;;;;;3.15;1.90;;;;;;;23.36;38.31;97427.69;5135211;27;20115;-33
2022/10/30 03:44:15;;;;;;;4.18;1.88;;;;;;;23.37;38.44;97435.47;5134842;27;20019;-34
2022/10/30 03:46:40;;;;;;;3.97;1.65;;;;;;;23.42;38.17;97434.78;5116779;27;20027;-33
2022/10/30 03:49:06;;;;;;;2.88;1.60;;;;;;;23.37;37.97;97441.00;5134843;27;20023;-33
2022/10/30 03:51:31;;;;;;;2.65;1.70;;;;;;;23.40;37.97;97433.75;5134853;27;20027;-33
2022/10/30 03:53:56;;;;;;;2.33;1.60;;;;;;;23.41;38.51;97438.03;5134701;27;20031;-34
2022/10/30 03:56:22;;;;;;;2.97;1.70;;;;;;;23.43;37.98;97443.84;5134601;27;20023;-33
2022/10/30 03:58:47;;;;;;;3.10;1.73;;;;;;;23.41;37.80;97438.03;5134760;27;20144;-33
2022/10/30 04:01:20;;;;;;;2.50;1.80;;;;;;;23.33;37.77;97439.72;5134816;27;20572;-33
2022/10/30 04:03:45;;;;;;;3.13;1.70;;;;;;;23.24;38.19;97438.59;5134805;27;20030;-33
2022/10/30 04:06:11;;;;;;;3.65;1.63;;;;;;;23.34;37.73;97446.78;5134596;27;20028;-33
2022/10/30 04:08:36;;;;;;;4.57;1.75;;;;;;;23.32;38.18;97449.25;5134987;27;20141;-33
2022/10/30 04:11:02;;;;;;;3.65;1.70;;;;;;;23.22;38.19;97446.66;5134689;27;20054;-33
2022/10/30 04:13:27;;;;;;;4.30;1.60;;;;;;;23.36;37.68;97447.06;5134731;27;20490;-33
2022/10/30 04:15:53;;;;;;;1.88;1.50;;;;;;;23.34;37.74;97446.78;5134336;27;20471;-33
2022/10/30 04:18:18;;;;;;;3.45;1.63;;;;;;;23.35;37.65;97451.06;5134652;27;20027;-33
2022/10/30 04:20:44;;;;;;;2.03;1.20;;;;;;;23.27;37.93;97453.47;5134398;27;20027;-34
2022/10/30 04:23:16;;;;;;;3.30;1.88;;;;;;;23.33;37.52;97451.53;5134587;27;20023;-33
2022/10/30 04:25:41;;;;;;;3.10;1.60;;;;;;;23.36;37.60;97449.81;5134562;27;20023;-34
2022/10/30 04:28:07;;;;;;;2.92;1.60;;;;;;;23.40;37.57;97450.34;5135045;27;20064;-37
2022/10/30 04:30:34;;;;;;;4.05;1.60;;;;;;;23.40;37.30;97442.81;5134662;27;20039;-34
2022/10/30 04:33:01;;;;;;;2.67;1.30;;;;;;;23.37;37.44;97451.34;5134555;28;20023;-33
2022/10/30 04:35:30;;;;;;;3.13;1.65;;;;;;;23.37;37.42;97446.53;5134590;28;20057;-33
2022/10/30 04:38:06;;;;;;;2.67;1.48;;;;;;;23.36;37.59;97444.28;5134286;28;20019;-33
2022/10/30 04:40:34;;;;;;;3.92;1.60;;;;;;;23.36;37.11;97452.59;5134325;28;20054;-34
2022/10/30 04:43:01;;;;;;;2.30;1.58;;;;;;;23.11;37.81;97451.31;5134323;28;20379;-34
2022/10/30 04:45:27;;;;;;;2.00;1.48;;;;;;;23.18;37.67;97450.88;5134262;28;20039;-34
2022/10/30 04:48:05;;;;;;;3.20;1.67;;;;;;;23.15;37.45;97449.81;5134165;28;20023;-33
2022/10/30 04:50:32;;;;;;;2.90;1.92;;;;;;;23.10;37.53;97449.78;5134348;28;20076;-35
2022/10/30 04:52:59;;;;;;;2.15;1.40;;;;;;;23.22;37.02;97456.97;5134188;28;20054;-34
2022/10/30 04:55:24;;;;;;;3.40;1.48;;;;;;;23.09;37.49;97446.25;5133932;28;20047;-33
2022/10/30 04:57:57;;;;;;;2.75;1.70;;;;;;;23.01;37.39;97447.13;5137014;27;20067;-34
2022/10/30 05:00:23;;;;;;;;;;;;;;;23.23;37.13;97445.41;5138747;27;20076;-34
2022/10/30 05:02:48;;;;;;;3.72;1.50;;;;;;;23.06;37.37;97438.91;5138322;27;19907;-33
2022/10/30 05:05:14;;;;;;;2.33;1.52;;;;;;;23.22;36.92;97446.66;5138210;27;20114;-33
2022/10/30 05:07:39;;;;;;;2.53;1.58;;;;;;;23.15;36.96;97435.22;5138118;27;20027;-34
2022/10/30 05:10:05;;;;;;;4.40;1.95;;;;;;;23.13;37.04;97444.00;5137987;27;20420;-36
2022/10/30 05:12:31;;;;;;;3.60;1.55;;;;;;;23.08;37.00;97447.50;5138057;27;20512;-33
2022/10/30 05:14:56;;;;;;;3.60;1.52;;;;;;;23.15;36.67;97447.06;5138163;27;20102;-33
2022/10/30 05:17:22;;;;;;;2.85;1.92;;;;;;;23.00;37.04;97442.84;5137792;27;20372;-33
2022/10/30 05:19:47;;;;;;;2.15;1.40;;;;;;;22.96;37.00;97434.00;5138042;27;20417;-33
2022/10/30 05:22:13;;;;;;;2.42;1.45;;;;;;;23.09;36.91;97442.72;5137857;27;20459;-36
2022/10/30 05:24:39;;;;;;;2.40;1.48;;;;;;;23.07;36.65;97443.19;5138013;27;20030;-35
2022/10/30 05:27:04;;;;;;;3.22;1.50;;;;;;;23.12;36.77;97439.72;5137802;27;20015;-34
2022/10/30 05:29:30;;;;;;;2.17;1.40;;;;;;;23.13;36.63;97438.47;5137720;27;20535;-33
2022/10/30 05:31:58;;;;;;;3.60;1.60;;;;;;;23.12;36.42;97436.97;5138033;27;20467;-33
2022/10/30 05:34:23;;;;;;;3.20;1.25;;;;;;;23.01;36.64;97436.81;5137687;27;20031;-34
2022/10/30 05:36:48;;;;;;;4.07;1.58;;;;;;;23.12;36.71;97436.97;5137439;27;20034;-33
2022/10/30 05:39:14;;;;;;;2.60;1.50;;;;;;;23.15;36.40;97435.22;5137429;27;20027;-33
2022/10/30 05:41:39;;;;;;;4.30;1.50;;;;;;;23.07;36.44;97434.16;5137524;27;20080;-33
2022/10/30 05:44:05;;;;;;;2.92;1.35;;;;;;;23.02;36.59;97438.34;5137359;27;20019;-33
2022/10/30 05:46:30;;;;;;;3.38;1.20;;;;;;;23.02;36.50;97432.81;5137493;27;20045;-35
2022/10/30 05:48:56;;;;;;;2.90;1.35;;;;;;;23.11;36.33;97445.78;5137620;27;20027;-33
2022/10/30 05:51:21;;;;;;;1.75;1.17;;;;;;;23.06;36.71;97443.69;5137170;27;20031;-33
2022/10/30 05:53:48;;;;;;;3.28;1.40;;;;;;;23.18;36.15;97439.81;5136974;27;20027;-34
2022/10/30 05:56:13;;;;;;;3.50;1.58;;;;;;;23.11;36.26;97441.00;5137049;27;20083;-34
2022/10/30 05:58:39;;;;;;;3.42;1.65;;;;;;;22.98;36.38;97448.13;5137264;27;20468;-34
2022/10/30 06:01:08;;;;;;;4.32;1.40;;;;;;;23.04;36.23;97441.41;5137047;27;20026;-33
2022/10/30 06:03:33;;;;;;;2.45;1.48;;;;;;;23.13;36.23;97441.25;5137272;27;20031;-33
2022/10/30 06:05:59;;;;;;;2.38;1.50;;;;;;;23.14;36.34;97439.25;5137119;27;20042;-35
2022/10/30 06:08:33;;;;;;;2.13;1.50;;;;;;;23.01;36.52;97433.31;5135682;27;20471;-33
2022/10/30 06:11:04;;;;;;;2.40;1.40;;;;;;;23.09;36.50;97437.19;5137004;27;20024;-33
2022/10/30 06:13:29;;;;;;;3.40;1.38;;;;;;;23.16;36.12;97443.06;5137151;27;20026;-34
2022/10/30 06:15:55;;;;;;;3.03;1.60;;;;;;;23.08;36.57;97441.97;5136966;27;20031;-34
2022/10/30 06:18:21;;;;;;;2.75;1.40;;;;;;;23.08;36.65;97450.25;5136664;27;20027;-34
2022/10/30 06:20:47;;;;;;;4.57;1.48;;;;;;;23.01;36.31;97456.19;5136725;27;20030;-34
2022/10/30 06:23:12;;;;;;;3.45;1.73;;;;;;;22.98;36.49;97457.19;5136776;27;20023;-33
2022/10/30 06:25:38;;;;;;;3.88;1.83;;;;;;;22.98;36.60;97454.41;5136639;27;20030;-33
2022/10/30 06:28:03;;;;;;;2.50;1.70;;;;;;;23.09;36.31;97451.03;5136573;27;20019;-33
2022/10/30 06:30:29;;;;;;;3.08;1.40;;;;;;;23.02;36.27;97459.72;5136657;27;20027;-33
2022/10/30 06:32:56;;;;;;;2.40;1.60;;;;;;;23.02;36.80;97454.19;5136402;27;20474;-34
2022/10/30 06:35:22;;;;;;;2.88;1.58;;;;;;;23.06;36.46;97461.03;5136544;27;20027;-33
2022/10/30 06:37:48;;;;;;;2.00;1.30;;;;;;;23.04;36.47;97451.72;5136363;27;20034;-33
2022/10/30 06:40:15;;;;;;;3.28;1.20;;;;;;;23.08;36.68;97455.78;5136311;27;20046;-33
2022/10/30 06:42:45;;;;;;;2.60;1.70;;;;;;;23.03;36.74;97456.47;5136435;27;20141;-33
2022/10/30 06:45:12;;;;;;;2.28;1.35;;;;;;;23.07;36.57;97450.75;5136397;27;20076;-35
2022/10/30 06:47:38;;;;;;;3.88;1.83;;;;;;;23.09;36.60;97462.84;5144448;27;20474;-34
2022/10/30 06:50:05;;;;;;;3.88;2.20;;;;;;;22.99;37.01;97455.19;5136825;27;20034;-37
2022/10/30 06:52:30;;;;;;;1.98;1.13;;;;;;;23.01;36.76;97466.50;5138294;27;20023;-33
2022/10/30 06:54:56;;;;;;;3.25;1.70;;;;;;;23.00;37.10;97467.75;5154513;27;20046;-33
2022/10/30 06:57:21;;;;;;;4.57;1.60;;;;;;;22.96;36.94;97481.03;5154672;27;20149;-33
2022/10/30 07:19:57;;;;;;;4.13;2.13;;;;;;;23.01;37.47;97491.41;5132778;27;20037;-33
2022/10/30 07:22:23;;;;;;;3.97;1.90;;;;;;;23.09;37.44;97485.00;5133215;27;20113;-33
2022/10/30 07:24:48;;;;;;;3.40;1.90;;;;;;;23.11;37.18;97487.28;5133591;27;20054;-33
2022/10/30 07:27:14;;;;;;;3.83;2.00;;;;;;;23.09;37.72;97476.69;5133641;27;20044;-33
2022/10/30 07:29:39;;;;;;;3.35;1.88;;;;;;;23.09;37.60;97493.28;5133194;27;20033;-33
2022/10/30 07:32:05;;;;;;;4.78;2.00;;;;;;;23.06;37.62;97496.25;5133293;27;20023;-34
2022/10/30 07:34:31;;;;;;;5.10;2.10;;;;;;;23.10;38.26;97494.81;5133096;27;20019;-34
2022/10/30 07:36:56;;;;;;;3.00;1.88;;;;;;;23.10;38.12;97497.56;5140809;27;20030;-33
2022/10/30 07:52:49;;;;;;;5.57;2.42;;;;;;;23.13;38.51;97506.91;5132401;27;20536;-33
2022/10/30 07:55:14;;;;;;;3.42;2.33;;;;;;;23.08;38.68;97502.84;5132693;27;20054;-35
2022/10/30 07:57:41;;;;;;;3.30;2.20;;;;;;;23.10;39.05;97505.13;5132575;27;20019;-34
2022/10/30 08:00:11;;;;;;;3.60;2.00;;;;;;;23.14;38.82;97511.19;5134723;27;20062;-36
2022/10/30 08:02:37;;;;;;;3.63;2.25;;;;;;;23.17;39.08;97504.69;5155605;27;20019;-34
2022/10/30 08:05:03;;;;;;;4.20;2.53;;;;;;;23.14;39.20;97511.94;5155474;27;20530;-35
2022/10/30 08:07:33;;;;;;;5.32;1.90;;;;;;;23.11;39.46;97515.72;5155362;27;20027;-35
2022/10/30 08:09:58;;;;;;;3.58;2.10;;;;;;;23.11;39.29;97512.94;5155421;27;20019;-33
2022/10/30 08:12:25;;;;;;;4.15;2.00;;;;;;;23.10;39.59;97513.41;5155249;27;20079;-34
2022/10/30 08:14:51;;;;;;;5.70;2.42;;;;;;;23.13;39.38;97510.44;5155561;27;20469;-34
2022/10/30 08:17:16;;;;;;;4.47;2.22;;;;;;;23.03;39.99;97506.28;5155357;27;20030;-35
2022/10/30 08:19:42;;;;;;;5.20;2.58;;;;;;;23.13;39.89;97513.19;5155457;27;20526;-34
2022/10/30 08:22:12;;;;;;;5.47;2.47;;;;;;;23.09;40.15;97509.88;5155368;27;20019;-34
2022/10/30 08:24:38;;;;;;;3.28;1.88;;;;;;;23.12;39.73;97519.22;5154559;27;20022;-35
2022/10/30 09:07:25;;;;;;;3.78;1.83;;;;;;;23.09;40.81;97532.03;4974188;27;20410;-33
2022/10/30 09:09:51;;;;;;;4.38;2.20;;;;;;;23.14;40.61;97533.31;5155054;27;20047;-34
2022/10/30 09:12:16;;;;;;;3.15;1.80;;;;;;;23.07;40.94;97533.75;5155096;27;20022;-36
2022/10/30 10:12:09;;;;;;;3.83;1.83;;;;;;;23.21;40.28;97510.78;4604951;27;20087;-33
2022/10/30 10:14:40;;;;;;;3.63;1.80;;;;;;;23.21;39.84;97513.56;5155913;27;20037;-33
2022/10/30 10:17:14;;;;;;;2.97;1.83;;;;;;;23.08;40.28;97521.44;5134740;27;20023;-33
2022/10/30 10:20:14;;;;;;;3.88;2.17;;;;;;;23.17;40.03;97508.22;5134726;27;20049;-34
2022/10/30 10:22:49;;;;;;;2.92;1.50;;;;;;;23.21;40.02;97506.00;5119986;27;20118;-34
2022/10/30 10:25:18;;;;;;;5.38;1.92;;;;;;;23.19;39.59;97510.50;5134605;27;20159;-33
2022/10/30 10:28:08;;;;;;;3.78;1.90;;;;;;;23.14;39.54;97511.94;5134274;27;20027;-33
2022/10/30 10:30:43;;;;;;;2.63;1.95;;;;;;;23.21;39.37;97503.25;5134718;27;20033;-34
2022/10/30 10:33:30;;;;;;;3.92;2.13;;;;;;;23.23;40.01;97494.47;5134487;27;20030;-33
2022/10/30 10:36:05;;;;;;;2.67;1.90;;;;;;;23.27;40.14;97497.75;5134395;27;20023;-33
2022/10/30 10:38:55;;;;;;;2.70;1.83;;;;;;;23.33;39.75;97495.06;5134257;27;20061;-33
2022/10/30 10:41:33;;;;;;;3.22;1.58;;;;;;;23.37;39.82;97498.41;5134218;27;20088;-33
2022/10/30 10:44:13;;;;;;;4.13;1.80;;;;;;;23.31;39.93;97497.56;5134151;27;20023;-34
2022/10/30 10:47:07;;;;;;;2.28;1.75;;;;;;;23.29;39.82;97489.75;5134297;27;20027;-33
2022/10/30 10:50:01;;;;;;;3.70;1.90;;;;;;;23.32;39.62;97493.56;5132950;27;20030;-34
2022/10/30 10:52:36;;;;;;;2.78;1.90;;;;;;;23.35;39.84;97498.13;5133927;27;20048;-33
2022/10/30 10:55:05;;;;;;;3.10;1.85;;;;;;;23.36;39.72;97488.56;5133442;27;20601;-34
2022/10/30 10:57:38;;;;;;;3.10;1.80;;;;;;;23.37;39.69;97490.09;5115536;27;20027;-33
2022/10/30 11:00:24;;;;;;;6.73;2.00;;;;;;;23.41;39.71;97485.09;5134052;27;20494;-33
2022/10/30 11:03:24;;;;;;;3.38;1.90;;;;;;;23.36;39.78;97485.81;5133577;27;20515;-34
2022/10/30 11:05:52;;;;;;;3.17;1.73;;;;;;;23.38;39.74;97486.06;5134004;27;20022;-33
2022/10/30 11:08:29;;;;;;;3.75;1.67;;;;;;;23.33;39.94;97486.78;5133791;27;20128;-33
2022/10/30 11:10:58;;;;;;;5.00;1.70;;;;;;;23.41;39.81;97480.31;5133796;27;20035;-33
2022/10/30 11:13:33;;;;;;;2.55;1.60;;;;;;;23.37;39.60;97479.75;5133739;27;20481;-33
2022/10/30 11:16:05;;;;;;;4.10;1.90;;;;;;;23.40;39.81;97475.25;5133545;27;20459;-34
2022/10/30 11:18:32;;;;;;;2.83;1.70;;;;;;;23.44;39.56;97484.13;5135087;27;20451;-34
2022/10/30 11:21:09;;;;;;;4.35;1.80;;;;;;;23.36;39.52;97478.25;5145148;27;20417;-34
2022/10/30 11:23:46;;;;;;;3.65;1.80;;;;;;;23.47;39.52;97472.09;5133623;27;20023;-34
2022/10/30 11:26:17;;;;;;;3.75;1.88;;;;;;;23.46;39.13;97465.78;5152017;27;20050;-34
2022/10/30 11:29:09;;;;;;;3.13;1.70;;;;;;;23.49;39.18;97464.06;5153974;27;20498;-35
2022/10/30 11:31:39;;;;;;;2.88;1.63;;;;;;;23.44;39.54;97456.44;5154063;27;20030;-34
2022/10/30 11:34:16;;;;;;;2.22;1.65;;;;;;;23.46;39.23;97460.25;5154049;27;20079;-33
2022/10/30 11:36:42;;;;;;;2.65;1.70;;;;;;;23.51;39.37;97458.78;5149575;27;20087;-34
2022/10/30 11:39:26;;;;;;;2.97;1.55;;;;;;;23.42;39.48;97456.16;5133131;27;20027;-33
2022/10/30 11:42:11;;;;;;;2.78;1.67;;;;;;;23.43;39.33;97449.38;5133319;27;20033;-33
2022/10/30 11:44:41;;;;;;;2.47;1.63;;;;;;;23.50;39.45;97457.25;5133077;27;20131;-33
2022/10/30 11:47:09;;;;;;;2.55;1.70;;;;;;;23.43;39.56;97454.91;5114628;27;20805;-33
2022/10/30 11:49:51;;;;;;;4.25;1.90;;;;;;;23.42;39.25;97453.41;5132438;27;20023;-33
2022/10/30 11:52:20;;;;;;;6.80;1.80;;;;;;;23.47;39.29;97449.94;5132770;27;20031;-34
2022/10/30 11:54:51;;;;;;;2.85;1.52;;;;;;;23.44;39.59;97442.59;5114286;27;20454;-33
2022/10/30 11:57:22;;;;;;;4.18;1.83;;;;;;;23.41;39.64;97435.25;5144785;27;20023;-33
2022/10/30 11:59:50;;;;;;;3.00;1.85;;;;;;;23.41;39.38;97435.25;5134837;27;20019;-33
2022/10/30 12:02:25;;;;;;;2.30;1.75;;;;;;;23.41;39.74;97436.03;5135153;27;20023;-33
2022/10/30 12:04:51;;;;;;;2.25;1.42;;;;;;;23.37;39.69;97429.19;5134891;27;20023;-33
2022/10/30 12:07:33;;;;;;;2.70;1.55;;;;;;;23.50;39.48;97429.56;5134765;27;20356;-33
2022/10/30 12:10:00;;;;;;;3.70;1.77;;;;;;;23.44;39.59;97429.50;5116242;27;20475;-33
2022/10/30 12:12:35;;;;;;;2.15;1.55;;;;;;;23.48;39.55;97419.00;5134677;27;20039;-34
2022/10/30 12:15:12;;;;;;;3.60;1.85;;;;;;;23.41;39.68;97422.19;5134632;27;20022;-35
2022/10/30 12:17:38;;;;;;;4.30;1.55;;;;;;;23.43;39.50;97421.69;5134494;27;20112;-33
2022/10/30 12:20:06;;;;;;;2.60;1.73;;;;;;;23.41;39.40;97418.66;5134483;27;20023;-33
2022/10/30 12:22:33;;;;;;;5.72;1.75;;;;;;;23.33;39.53;97412.03;5134749;27;20051;-33
2022/10/30 12:25:02;;;;;;;2.70;1.83;;;;;;;23.40;39.67;97406.81;5134836;27;20037;-33
2022/10/30 12:27:30;;;;;;;3.83;2.00;;;;;;;23.34;39.77;97411.56;5135027;27;20430;-33
2022/10/30 12:30:04;;;;;;;4.20;1.58;;;;;;;23.37;40.01;97402.25;5134789;27;20027;-33
2022/10/30 12:32:39;;;;;;;6.10;1.95;;;;;;;23.38;39.61;97406.53;5134569;27;20026;-33
2022/10/30 12:35:30;;;;;;;2.10;1.45;;;;;;;23.38;39.88;97401.00;5134447;27;20023;-33
2022/10/30 12:37:58;;;;;;;3.58;1.70;;;;;;;23.37;40.15;97402.25;5123181;27;20027;-35
2022/10/30 12:40:37;;;;;;;5.03;1.88;;;;;;;23.46;39.91;97404.13;5134495;27;20505;-34
2022/10/30 12:43:14;;;;;;;4.05;1.75;;;;;;;23.45;39.63;97397.06;5134332;27;20027;-34
2022/10/30 12:45:46;;;;;;;2.58;1.63;;;;;;;23.36;40.00;97395.22;5134279;27;20454;-33
2022/10/30 12:48:21;;;;;;;5.07;1.90;;;;;;;23.34;40.12;97396.94;5134626;27;20084;-33
2022/10/30 12:50:51;;;;;;;4.35;1.50;;;;;;;23.41;40.14;97397.25;5134262;27;20027;-33
2022/10/30 12:54:11;;;;;;;1.45;1.30;;;;;;;23.36;40.02;97394.47;5134146;27;20023;-33
2022/10/30 12:56:41;;;;;;;2.83;1.63;;;;;;;23.42;39.97;97392.50;5134091;27;20053;-33
2022/10/30 12:59:44;;;;;;;5.10;1.55;;;;;;;23.39;40.06;97383.16;5134377;27;20031;-33
2022/10/30 13:02:19;;;;;;;2.78;1.50;;;;;;;23.35;40.25;97379.09;5115965;28;20023;-35
2022/10/30 13:04:51;;;;;;;2.47;1.67;;;;;;;23.36;40.02;97384.16;5115692;28;20022;-33
2022/10/30 13:07:25;;;;;;;3.67;1.40;;;;;;;23.36;40.03;97383.38;5134215;27;20028;-34
2022/10/30 13:10:26;;;;;;;2.53;1.52;;;;;;;23.41;39.90;97382.66;5134207;27;20031;-34
2022/10/30 13:13:00;;;;;;;2.90;1.42;;;;;;;23.38;39.89;97376.09;5133870;27;20039;-33
2022/10/30 13:15:32;;;;;;;4.07;1.55;;;;;;;23.38;39.82;97383.63;5136431;27;20023;-33
2022/10/30 13:17:59;;;;;;;3.05;1.40;;;;;;;23.43;40.26;97380.16;5156140;27;20019;-35
2022/10/30 13:20:27;;;;;;;3.90;1.77;;;;;;;23.39;40.21;97382.38;5158843;27;20031;-35
2022/10/30 13:22:58;;;;;;;2.30;1.42;;;;;;;23.43;40.29;97382.94;5158776;27;20435;-35
2022/10/30 13:25:54;;;;;;;3.08;1.35;;;;;;;23.34;40.28;97381.09;5158883;27;20026;-35
2022/10/30 13:28:26;;;;;;;2.75;1.65;;;;;;;23.36;40.52;97375.09;5157914;27;20031;-35
2022/10/30 13:31:06;;;;;;;4.50;1.67;;;;;;;23.46;40.04;97377.19;5158487;27;20026;-35
2022/10/30 13:33:39;;;;;;;1.88;1.38;;;;;;;23.40;40.29;97376.38;5158704;27;20015;-33
2022/10/30 13:36:14;;;;;;;2.40;1.67;;;;;;;23.40;40.25;97370.06;5158463;27;20501;-33
2022/10/30 13:38:49;;;;;;;1.67;1.30;;;;;;;23.44;40.14;97373.38;5158478;27;20443;-33
2022/10/30 13:41:31;;;;;;;2.20;1.70;;;;;;;23.38;40.16;97373.31;5158154;27;20035;-34
2022/10/30 13:44:08;;;;;;;2.75;1.70;;;;;;;23.40;40.39;97375.59;5158681;27;20042;-33
2022/10/30 13:46:48;;;;;;;4.03;1.85;;;;;;;23.44;40.16;97373.38;5158355;27;20015;-33
2022/10/30 13:49:40;;;;;;;2.30;1.77;;;;;;;23.34;40.58;97366.50;5158010;27;20021;-36
2022/10/30 13:52:17;;;;;;;3.92;2.40;;;;;;;23.36;40.42;97369.56;5158335;27;20034;-34
2022/10/30 13:54:51;;;;;;;2.25;1.50;;;;;;;23.36;40.28;97367.53;5158232;27;20422;-34
2022/10/30 13:57:45;;;;;;;3.28;1.80;;;;;;;23.37;40.40;97368.31;5156611;27;20076;-33
2022/10/30 14:00:10;;;;;;;;;;;;;;;23.43;40.52;97369.09;5155253;27;20079;-35